createdAt,value
2022-11-23T00:00:34.389Z,3.04
2022-11-23T00:03:05.400Z,3.12
2022-11-23T00:05:35.969Z,3.08
2022-11-23T00:08:05.383Z,3.12
2022-11-23T00:10:34.584Z,3.12
2022-11-23T00:13:03.895Z,3.19
2022-11-23T00:15:35.612Z,3.21
2022-11-23T00:18:06.146Z,3.22
2022-11-23T00:20:35.252Z,3.29
2022-11-23T00:23:04.226Z,3.19
2022-11-23T00:25:33.343Z,3.28
2022-11-23T00:28:02.415Z,3.22
2022-11-23T00:30:31.641Z,3.32
2022-11-23T00:33:01.016Z,3.25
2022-11-23T00:35:34.697Z,3.34
2022-11-23T00:38:03.848Z,3.36
2022-11-23T00:40:32.875Z,3.44
2022-11-23T00:43:04.852Z,3.42
2022-11-23T00:45:33.939Z,3.35
2022-11-23T00:48:03.039Z,3.34
2022-11-23T00:50:32.602Z,3.35
2022-11-23T00:53:03.004Z,3.29
2022-11-23T00:55:32.170Z,3.26
2022-11-23T00:58:01.225Z,3.39
2022-11-23T01:00:30.481Z,3.35
2022-11-23T01:02:59.547Z,3.41
2022-11-23T01:05:30.262Z,3.38
2022-11-23T01:08:04.230Z,3.29
2022-11-23T01:10:34.535Z,3.28
2022-11-23T01:13:03.660Z,3.25
2022-11-23T01:15:32.734Z,3.36
2022-11-23T01:18:01.831Z,3.36
2022-11-23T01:20:33.415Z,3.39
2022-11-23T01:23:04.750Z,3.34
2022-11-23T01:25:37.626Z,3.32
2022-11-23T01:28:07.183Z,3.42
2022-11-23T01:30:36.553Z,3.48
2022-11-23T01:33:06.083Z,3.36
2022-11-23T01:35:35.143Z,3.36
2022-11-23T01:38:05.673Z,3.42
2022-11-23T01:40:42.630Z,3.48
2022-11-23T01:43:17.357Z,3.46
2022-11-23T01:45:58.817Z,3.48
2022-11-23T01:48:33.538Z,3.49
2022-11-23T01:51:06.520Z,3.42
2022-11-23T01:53:39.917Z,3.45
2022-11-23T01:56:12.149Z,3.54
2022-11-23T01:58:48.864Z,3.48
2022-11-23T02:01:18.079Z,3.50
2022-11-23T02:03:50.199Z,3.54
2022-11-23T02:06:21.488Z,3.45
2022-11-23T02:08:53.706Z,3.51
2022-11-23T02:11:22.787Z,3.46
2022-11-23T02:13:54.619Z,3.38
2022-11-23T02:16:24.875Z,3.43
2022-11-23T02:18:55.862Z,3.37
2022-11-23T02:21:25.476Z,3.34
2022-11-23T02:24:04.995Z,3.38
2022-11-23T02:26:37.340Z,3.35
2022-11-23T02:29:13.159Z,3.36
2022-11-23T02:31:42.323Z,3.33
2022-11-23T02:34:11.424Z,3.39
2022-11-23T02:36:43.511Z,3.34
2022-11-23T02:39:15.550Z,3.34
2022-11-23T02:41:49.191Z,3.40
2022-11-23T02:44:38.480Z,3.44
2022-11-23T02:47:10.149Z,3.35
2022-11-23T02:49:42.657Z,3.42
2022-11-23T02:52:11.756Z,3.44
2022-11-23T02:54:40.855Z,3.43
2022-11-23T02:57:11.907Z,3.46
2022-11-23T02:59:42.922Z,3.50
2022-11-23T03:02:12.277Z,3.44
2022-11-23T03:04:41.419Z,3.50
2022-11-23T03:07:10.553Z,3.47
2022-11-23T03:09:41.323Z,3.51
2022-11-23T03:12:12.665Z,3.50
2022-11-23T03:14:41.717Z,3.51
2022-11-23T03:17:11.038Z,3.62
2022-11-23T03:19:43.388Z,3.57
2022-11-23T03:22:13.943Z,3.54
2022-11-23T03:24:43.090Z,3.47
2022-11-23T03:27:18.842Z,3.42
2022-11-23T03:29:49.115Z,3.39
2022-11-23T03:32:22.165Z,3.44
2022-11-23T03:34:55.875Z,3.43
2022-11-23T03:37:25.414Z,3.50
2022-11-23T03:39:55.316Z,3.59
2022-11-23T03:42:25.722Z,3.58
2022-11-23T03:44:54.920Z,3.50
2022-11-23T03:47:24.075Z,3.48
2022-11-23T03:49:53.377Z,3.45
2022-11-23T03:52:22.468Z,3.48
2022-11-23T03:54:51.537Z,3.57
2022-11-23T03:57:20.611Z,3.60
2022-11-23T03:59:51.544Z,3.55
2022-11-23T04:02:21.285Z,3.52
2022-11-23T04:05:01.254Z,3.50
2022-11-23T04:07:49.441Z,3.48
2022-11-23T04:10:20.238Z,3.53
2022-11-23T04:13:04.349Z,3.55
2022-11-23T04:15:35.035Z,3.49
2022-11-23T04:18:05.519Z,3.48
2022-11-23T04:20:34.614Z,3.51
2022-11-23T04:23:03.684Z,3.52
2022-11-23T04:25:33.104Z,3.63
2022-11-23T04:28:02.323Z,3.51
2022-11-23T04:30:32.227Z,3.51
2022-11-23T04:33:02.696Z,3.57
2022-11-23T04:35:32.691Z,3.71
2022-11-23T04:38:02.527Z,3.64
2022-11-23T04:40:34.610Z,3.56
2022-11-23T04:43:06.580Z,3.56
2022-11-23T04:45:40.617Z,3.51
2022-11-23T04:48:17.451Z,3.56
2022-11-23T04:50:47.030Z,3.51
2022-11-23T04:53:22.849Z,3.54
2022-11-23T04:55:52.544Z,3.52
2022-11-23T04:58:21.751Z,3.50
2022-11-23T05:00:56.647Z,3.48
2022-11-23T05:03:27.164Z,3.54
2022-11-23T05:05:59.585Z,3.50
2022-11-23T05:08:34.471Z,3.55
2022-11-23T05:11:19.942Z,3.54
2022-11-23T05:13:50.724Z,3.51
2022-11-23T05:16:20.029Z,3.63
2022-11-23T05:18:50.854Z,3.56
2022-11-23T05:21:19.895Z,3.61
2022-11-23T05:23:49.621Z,3.54
2022-11-23T05:26:20.919Z,3.50
2022-11-23T05:28:51.020Z,3.48
2022-11-23T05:31:20.658Z,3.48
2022-11-23T05:33:51.650Z,3.52
2022-11-23T05:36:29.811Z,3.59
2022-11-23T05:38:59.345Z,3.64
2022-11-23T05:41:33.249Z,3.64
2022-11-23T05:44:04.728Z,3.58
2022-11-23T05:46:33.866Z,3.65
2022-11-23T05:49:04.861Z,3.67
2022-11-23T05:51:38.831Z,3.75
2022-11-23T05:54:08.430Z,3.57
2022-11-23T05:56:48.128Z,3.43
2022-11-23T05:59:22.879Z,3.39
2022-11-23T06:01:59.958Z,3.43
2022-11-23T06:04:34.702Z,3.40
2022-11-23T06:07:04.387Z,3.36
2022-11-23T06:09:46.313Z,3.42
2022-11-23T06:12:15.441Z,3.36
2022-11-23T06:14:44.466Z,3.37
2022-11-23T06:17:15.396Z,3.35
2022-11-23T06:19:52.286Z,3.38
2022-11-23T06:22:21.356Z,3.51
2022-11-23T06:24:58.177Z,3.48
2022-11-23T06:27:41.179Z,3.49
2022-11-23T06:30:21.888Z,3.41
2022-11-23T06:32:51.198Z,3.39
2022-11-23T06:35:23.849Z,3.60
2022-11-23T06:37:54.733Z,3.55
2022-11-23T06:40:25.228Z,3.43
2022-11-23T06:43:00.292Z,3.42
2022-11-23T06:45:47.591Z,3.46
2022-11-23T06:48:18.501Z,3.45
2022-11-23T06:50:51.316Z,3.48
2022-11-23T06:53:22.759Z,3.48
2022-11-23T06:56:00.956Z,3.49
2022-11-23T06:58:32.235Z,3.51
2022-11-23T07:01:05.024Z,3.54
2022-11-23T07:03:39.779Z,3.59
2022-11-23T07:06:20.940Z,3.63
2022-11-23T07:08:52.023Z,3.69
2022-11-23T07:11:50.046Z,3.74
2022-11-23T07:14:19.696Z,4.02
2022-11-23T07:16:51.770Z,4.07
2022-11-23T07:19:21.341Z,4.23
2022-11-23T07:21:54.276Z,4.15
2022-11-23T07:24:23.553Z,4.12
2022-11-23T07:26:52.648Z,4.01
2022-11-23T07:29:22.207Z,3.86
2022-11-23T07:31:51.554Z,3.86
2022-11-23T07:34:22.356Z,3.98
2022-11-23T07:36:51.419Z,4.00
2022-11-23T07:39:32.247Z,3.99
2022-11-23T07:42:31.622Z,4.07
2022-11-23T07:45:00.938Z,4.09
2022-11-23T07:47:30.071Z,4.08
2022-11-23T07:49:59.135Z,4.08
2022-11-23T07:52:28.344Z,4.06
2022-11-23T07:55:00.265Z,4.06
2022-11-23T07:57:30.038Z,4.05
2022-11-23T07:59:59.147Z,4.05
2022-11-23T08:02:28.365Z,4.06
2022-11-23T08:04:57.492Z,4.06
2022-11-23T08:07:26.650Z,4.06
2022-11-23T08:09:55.831Z,4.12
2022-11-23T08:12:26.383Z,4.16
2022-11-23T08:14:55.430Z,4.18
2022-11-23T08:17:24.669Z,4.21
2022-11-23T08:19:53.831Z,4.31
2022-11-23T08:22:23.662Z,4.33
2022-11-23T08:24:52.676Z,4.37
2022-11-23T08:27:21.971Z,4.38
2022-11-23T08:29:52.378Z,4.39
2022-11-23T08:32:21.438Z,4.37
2022-11-23T08:34:50.372Z,4.43
2022-11-23T08:37:19.509Z,4.51
2022-11-23T08:39:48.513Z,4.56
2022-11-23T08:42:17.608Z,4.62
2022-11-23T08:44:46.997Z,4.70
2022-11-23T08:47:17.377Z,4.80
2022-11-23T08:49:46.497Z,4.92
2022-11-23T08:52:16.117Z,4.98
2022-11-23T08:54:45.200Z,5.01
2022-11-23T08:57:14.206Z,5.11
2022-11-23T08:59:43.337Z,5.17
2022-11-23T09:02:14.531Z,5.24
2022-11-23T09:04:44.940Z,5.27
2022-11-23T09:07:14.043Z,5.25
2022-11-23T09:09:43.151Z,5.28
2022-11-23T09:12:12.786Z,5.36
2022-11-23T09:14:41.909Z,5.41
2022-11-23T09:17:11.139Z,5.50
2022-11-23T09:19:40.155Z,5.55
2022-11-23T09:22:10.853Z,5.60
2022-11-23T09:24:40.044Z,5.62
2022-11-23T09:27:09.063Z,5.69
2022-11-23T09:29:38.264Z,5.78
2022-11-23T09:32:07.390Z,5.78
2022-11-23T09:34:36.503Z,5.82
2022-11-23T09:37:05.719Z,5.82
2022-11-23T09:39:36.160Z,5.87
2022-11-23T09:42:35.038Z,5.90
2022-11-23T09:45:18.966Z,5.90
2022-11-23T09:48:07.220Z,5.95
2022-11-23T09:50:48.308Z,6.01
2022-11-23T09:53:22.715Z,6.01
2022-11-23T09:55:57.179Z,6.05
2022-11-23T09:58:35.823Z,6.11
2022-11-23T10:01:09.187Z,6.16
2022-11-23T10:03:46.965Z,6.17
2022-11-23T10:06:25.458Z,6.15
2022-11-23T10:09:13.545Z,5.94
2022-11-23T10:12:08.771Z,6.22
2022-11-23T10:14:54.490Z,6.19
2022-11-23T10:17:44.693Z,6.12
2022-11-23T10:20:35.171Z,6.04
2022-11-23T10:23:09.470Z,5.97
2022-11-23T10:25:46.607Z,5.92
2022-11-23T10:28:19.964Z,5.92
2022-11-23T10:30:54.962Z,5.93
2022-11-23T10:33:31.494Z,5.94
2022-11-23T10:36:00.654Z,6.03
2022-11-23T10:38:30.039Z,6.26
2022-11-23T10:41:06.236Z,6.37
2022-11-23T10:43:45.472Z,6.33
2022-11-23T10:46:32.629Z,6.32
2022-11-23T10:49:19.235Z,6.24
2022-11-23T10:51:57.483Z,6.26
2022-11-23T10:54:32.010Z,6.22
2022-11-23T10:57:04.042Z,6.21
2022-11-23T10:59:40.046Z,6.35
2022-11-23T11:02:22.763Z,6.34
2022-11-23T11:05:13.112Z,6.36
2022-11-23T11:07:42.709Z,6.41
2022-11-23T11:10:47.000Z,6.48
2022-11-23T11:13:29.868Z,6.50
2022-11-23T11:16:03.332Z,6.58
2022-11-23T11:18:34.995Z,6.65
2022-11-23T11:21:08.158Z,6.75
2022-11-23T11:23:41.924Z,6.69
2022-11-23T11:26:20.862Z,6.73
2022-11-23T11:28:52.603Z,6.77
2022-11-23T11:31:54.411Z,6.74
2022-11-23T11:34:27.846Z,6.62
2022-11-23T11:37:05.402Z,6.73
2022-11-23T11:39:43.090Z,6.81
2022-11-23T11:42:21.226Z,6.75
2022-11-23T11:44:54.178Z,6.81
2022-11-23T11:47:32.049Z,6.99
2022-11-23T11:50:09.731Z,7.03
2022-11-23T11:52:43.579Z,7.14
2022-11-23T11:55:19.918Z,7.23
2022-11-23T11:57:52.065Z,7.26
2022-11-23T12:00:22.407Z,7.25
2022-11-23T12:03:05.456Z,7.33
2022-11-23T12:05:43.428Z,7.38
2022-11-23T12:08:16.603Z,7.34
2022-11-23T12:10:51.591Z,7.37
2022-11-23T12:13:23.664Z,7.34
2022-11-23T12:16:06.603Z,7.32
2022-11-23T12:19:04.944Z,7.39
2022-11-23T12:22:08.717Z,7.35
2022-11-23T12:25:11.680Z,7.45
2022-11-23T12:27:57.383Z,7.54
2022-11-23T12:30:35.858Z,7.67
2022-11-23T12:33:31.893Z,7.76
2022-11-23T12:36:31.298Z,7.91
2022-11-23T12:39:17.248Z,7.94
2022-11-23T12:41:55.261Z,8.03
2022-11-23T12:45:01.331Z,8.18
2022-11-23T12:47:46.452Z,8.25
2022-11-23T12:50:28.811Z,8.24
2022-11-23T12:53:14.473Z,8.26
2022-11-23T12:55:55.371Z,8.30
2022-11-23T12:58:29.038Z,8.38
2022-11-23T13:01:02.512Z,8.49
2022-11-23T13:04:32.184Z,8.57
2022-11-23T13:07:43.522Z,8.64
2022-11-23T13:10:37.026Z,8.73
2022-11-23T13:13:36.808Z,8.67
2022-11-23T13:16:26.994Z,8.68
2022-11-23T13:19:11.822Z,8.63
2022-11-23T13:21:43.018Z,8.62
2022-11-23T13:24:30.248Z,8.55
2022-11-23T13:27:43.328Z,8.48
2022-11-23T13:30:45.636Z,8.44
2022-11-23T13:33:38.533Z,8.39
2022-11-23T13:36:18.336Z,8.28
2022-11-23T13:38:48.999Z,8.20
2022-11-23T13:42:01.550Z,8.14
2022-11-23T13:44:33.586Z,8.08
2022-11-23T13:47:22.720Z,8.01
2022-11-23T13:49:53.552Z,8.01
2022-11-23T13:52:30.306Z,8.01
2022-11-23T13:55:10.064Z,8.00
2022-11-23T13:57:41.143Z,7.96
2022-11-23T14:00:51.356Z,7.88
2022-11-23T14:03:57.387Z,7.80
2022-11-23T14:06:48.750Z,7.75
2022-11-23T14:09:27.244Z,7.67
2022-11-23T14:12:09.251Z,7.52
2022-11-23T14:14:52.132Z,7.39
2022-11-23T14:18:05.011Z,7.27
2022-11-23T14:20:53.674Z,7.02
2022-11-23T14:24:08.860Z,6.96
2022-11-23T14:26:53.406Z,6.81
2022-11-23T14:29:40.803Z,6.65
2022-11-23T14:32:32.592Z,6.48
2022-11-23T14:35:25.923Z,6.46
2022-11-23T14:38:41.260Z,6.36
2022-11-23T14:41:22.034Z,6.27
2022-11-23T14:43:53.423Z,6.24
2022-11-23T14:46:25.733Z,6.20
2022-11-23T14:49:06.893Z,6.11
2022-11-23T14:51:42.777Z,6.04
2022-11-23T14:54:13.128Z,5.95
2022-11-23T14:56:46.288Z,5.88
2022-11-23T14:59:24.652Z,5.81
2022-11-23T15:01:57.559Z,5.81
2022-11-23T15:04:34.599Z,5.78
2022-11-23T15:07:12.703Z,5.84
2022-11-23T15:09:51.172Z,6.25
2022-11-23T15:12:27.071Z,6.01
2022-11-23T15:14:58.576Z,5.93
2022-11-23T15:17:28.290Z,5.84
2022-11-23T15:19:59.263Z,5.89
2022-11-23T15:22:31.354Z,5.98
2022-11-23T15:25:08.321Z,6.05
2022-11-23T15:27:45.285Z,6.08
2022-11-23T15:30:21.039Z,5.96
2022-11-23T15:33:01.855Z,5.82
2022-11-23T15:35:40.071Z,5.83
2022-11-23T15:38:22.076Z,5.71
2022-11-23T15:40:53.055Z,5.76
2022-11-23T15:43:22.557Z,5.74
2022-11-23T15:46:07.660Z,5.62
2022-11-23T15:48:39.171Z,5.52
2022-11-23T15:51:22.639Z,5.44
2022-11-23T15:53:55.204Z,5.36
2022-11-23T15:56:31.731Z,5.34
2022-11-23T15:59:03.743Z,5.26
2022-11-23T16:01:39.585Z,5.22
2022-11-23T16:04:28.764Z,5.21
2022-11-23T16:06:58.274Z,5.18
2022-11-23T16:09:57.159Z,5.15
2022-11-23T16:12:29.618Z,5.04
2022-11-23T16:15:00.634Z,5.04
2022-11-23T16:17:30.735Z,5.00
2022-11-23T16:20:04.096Z,4.99
2022-11-23T16:22:37.349Z,5.00
2022-11-23T16:25:19.229Z,4.94
2022-11-23T16:27:48.547Z,4.87
2022-11-23T16:30:25.599Z,4.87
2022-11-23T16:32:55.116Z,4.84
2022-11-23T16:35:24.171Z,4.81
2022-11-23T16:37:53.636Z,4.79
2022-11-23T16:40:24.193Z,4.75
2022-11-23T16:42:54.532Z,4.80
2022-11-23T16:45:23.863Z,4.88
2022-11-23T16:47:55.742Z,4.86
2022-11-23T16:50:25.700Z,4.85
2022-11-23T16:52:55.092Z,4.79
2022-11-23T16:55:26.910Z,4.78
2022-11-23T16:57:57.131Z,4.80
2022-11-23T17:00:27.024Z,4.79
2022-11-23T17:02:56.341Z,4.79
2022-11-23T17:05:25.708Z,4.88
2022-11-23T17:07:55.010Z,4.79
2022-11-23T17:10:25.634Z,4.76
2022-11-23T17:12:56.977Z,4.69
2022-11-23T17:15:26.330Z,4.67
2022-11-23T17:17:56.624Z,4.62
2022-11-23T17:20:25.859Z,4.54
2022-11-23T17:23:00.458Z,4.45
2022-11-23T17:25:31.134Z,4.38
2022-11-23T17:28:01.525Z,4.35
2022-11-23T17:30:31.488Z,4.23
2022-11-23T17:33:01.204Z,4.17
2022-11-23T17:35:35.366Z,4.07
2022-11-23T17:38:15.822Z,4.05
2022-11-23T17:40:47.037Z,4.02
2022-11-23T17:43:16.660Z,4.00
2022-11-23T17:45:47.184Z,3.98
2022-11-23T17:48:18.198Z,3.94
2022-11-23T17:50:48.031Z,3.87
2022-11-23T17:53:21.264Z,3.92
2022-11-23T17:55:54.635Z,4.13
2022-11-23T17:58:23.711Z,4.34
2022-11-23T18:00:52.792Z,4.47
2022-11-23T18:03:21.978Z,4.46
2022-11-23T18:05:51.303Z,4.60
2022-11-23T18:08:20.555Z,4.67
2022-11-23T18:10:49.707Z,4.58
2022-11-23T18:13:20.544Z,4.69
2022-11-23T18:15:49.999Z,4.55
2022-11-23T18:18:19.301Z,4.55
2022-11-23T18:20:49.153Z,4.57
2022-11-23T18:23:18.286Z,4.48
2022-11-23T18:25:47.828Z,4.47
2022-11-23T18:28:18.839Z,4.37
2022-11-23T18:30:49.326Z,4.36
2022-11-23T18:33:18.588Z,4.44
2022-11-23T18:35:47.788Z,4.45
2022-11-23T18:38:17.591Z,4.41
2022-11-23T18:40:48.839Z,4.32
2022-11-23T18:43:18.662Z,4.42
2022-11-23T18:45:49.689Z,4.33
2022-11-23T18:48:19.132Z,4.26
2022-11-23T18:50:48.539Z,4.19
2022-11-23T18:53:18.735Z,4.16
2022-11-23T18:55:48.365Z,4.08
2022-11-23T18:58:19.105Z,4.02
2022-11-23T19:00:51.644Z,3.99
2022-11-23T19:03:21.182Z,4.01
2022-11-23T19:05:50.559Z,4.06
2022-11-23T19:08:20.111Z,4.09
2022-11-23T19:10:49.432Z,4.08
2022-11-23T19:13:19.064Z,4.06
2022-11-23T19:15:48.948Z,4.02
2022-11-23T19:18:22.004Z,4.02
2022-11-23T19:20:51.576Z,4.06
2022-11-23T19:23:21.893Z,4.09
2022-11-23T19:25:52.296Z,4.20
2022-11-23T19:28:21.871Z,4.11
2022-11-23T19:30:51.849Z,4.06
2022-11-23T19:33:22.712Z,4.15
2022-11-23T19:35:53.070Z,4.11
2022-11-23T19:38:22.718Z,4.07
2022-11-23T19:40:56.001Z,4.03
2022-11-23T19:43:25.583Z,4.10
2022-11-23T19:45:55.965Z,4.16
2022-11-23T19:48:26.974Z,4.13
2022-11-23T19:50:57.702Z,4.07
2022-11-23T19:53:30.740Z,4.10
2022-11-23T19:56:04.286Z,4.09
2022-11-23T19:58:34.619Z,4.10
2022-11-23T20:01:07.064Z,4.09
2022-11-23T20:03:39.114Z,4.10
2022-11-23T20:06:12.394Z,4.15
2022-11-23T20:08:41.603Z,4.26
2022-11-23T20:11:12.904Z,4.22
2022-11-23T20:13:43.501Z,4.24
2022-11-23T20:16:15.670Z,4.21
2022-11-23T20:18:49.327Z,4.13
2022-11-23T20:21:20.928Z,4.06
2022-11-23T20:23:50.697Z,4.05
2022-11-23T20:26:19.813Z,3.99
2022-11-23T20:28:52.725Z,3.95
2022-11-23T20:31:24.395Z,3.91
2022-11-23T20:33:55.579Z,3.87
2022-11-23T20:36:27.363Z,3.82
2022-11-23T20:38:57.447Z,3.77
2022-11-23T20:41:28.824Z,3.72
2022-11-23T20:44:00.936Z,3.67
2022-11-23T20:47:00.058Z,3.62
2022-11-23T20:49:22.605Z,3.56
2022-11-23T20:51:51.661Z,3.61
2022-11-23T20:54:20.880Z,3.57
2022-11-23T20:56:50.091Z,3.52
2022-11-23T20:59:19.924Z,3.53
2022-11-23T21:01:49.135Z,3.56
2022-11-23T21:04:18.275Z,3.59
2022-11-23T21:06:48.856Z,3.55
2022-11-23T21:09:18.234Z,3.56
2022-11-23T21:12:04.736Z,3.50
2022-11-23T21:14:34.283Z,3.53
2022-11-23T21:17:03.679Z,3.53
2022-11-23T21:19:35.037Z,3.48
2022-11-23T21:22:08.228Z,3.60
2022-11-23T21:24:37.871Z,3.65
2022-11-23T21:27:12.175Z,3.70
2022-11-23T21:29:44.089Z,3.78
2022-11-23T21:32:14.935Z,3.72
2022-11-23T21:34:44.505Z,3.64
2022-11-23T21:37:14.959Z,3.54
2022-11-23T21:39:49.446Z,3.52
2022-11-23T21:42:21.718Z,3.60
2022-11-23T21:44:50.975Z,3.75
2022-11-23T21:47:20.178Z,3.76
2022-11-23T21:49:49.500Z,3.78
2022-11-23T21:52:19.952Z,3.76
2022-11-23T21:54:49.339Z,3.73
2022-11-23T21:57:18.529Z,3.74
2022-11-23T21:59:47.594Z,3.65
2022-11-23T22:02:16.753Z,3.63
2022-11-23T22:04:45.939Z,3.63
2022-11-23T22:07:15.210Z,3.69
2022-11-23T22:09:45.785Z,3.77
2022-11-23T22:12:14.860Z,3.89
2022-11-23T22:14:43.890Z,3.92
2022-11-23T22:17:12.969Z,3.90
2022-11-23T22:19:42.278Z,3.83
2022-11-23T22:22:11.389Z,3.85
2022-11-23T22:24:40.496Z,3.92
2022-11-23T22:27:11.233Z,3.87
2022-11-23T22:29:40.408Z,3.87
2022-11-23T22:32:09.527Z,4.20
2022-11-23T22:34:39.969Z,4.30
2022-11-23T22:37:10.931Z,4.07
2022-11-23T22:39:40.198Z,3.95
2022-11-23T22:42:10.787Z,3.92
2022-11-23T22:44:39.826Z,3.84
2022-11-23T22:47:08.998Z,3.86
2022-11-23T22:49:38.255Z,3.91
2022-11-23T22:52:07.383Z,3.76
2022-11-23T22:54:36.686Z,3.81
2022-11-23T22:57:05.981Z,3.84
2022-11-23T22:59:36.544Z,3.74
2022-11-23T23:02:05.695Z,3.71
2022-11-23T23:04:35.068Z,3.66
2022-11-23T23:07:04.557Z,3.64
2022-11-23T23:09:33.729Z,3.59
2022-11-23T23:12:03.238Z,3.66
2022-11-23T23:14:32.665Z,3.74
2022-11-23T23:17:03.523Z,3.83
2022-11-23T23:19:32.734Z,3.76
2022-11-23T23:22:01.810Z,3.63
2022-11-23T23:24:31.140Z,3.55
2022-11-23T23:27:00.604Z,3.59
2022-11-23T23:29:29.836Z,3.71
2022-11-23T23:31:58.918Z,3.73
2022-11-23T23:34:29.415Z,3.70
2022-11-23T23:36:58.492Z,3.61
2022-11-23T23:39:27.988Z,3.63
2022-11-23T23:41:57.048Z,3.63
2022-11-23T23:44:26.060Z,3.53
2022-11-23T23:46:55.275Z,3.46
2022-11-23T23:49:24.574Z,3.48
2022-11-23T23:51:55.009Z,3.48
2022-11-23T23:54:24.197Z,3.40
2022-11-23T23:56:53.350Z,3.28
2022-11-23T23:59:23.583Z,3.21
